sensor_id;sensor_type;location;lat;lon;timestamp;pressure;altitude;pressure_sealevel;temperature;humidity
55687;BME280;41911;52.362;4.978;2022-08-03T00:00:09;101499.76;;;21.54;45.45
55687;BME280;41911;52.362;4.978;2022-08-03T00:00:42;101502.01;;;22.01;45.29
55687;BME280;41911;52.362;4.978;2022-08-03T00:01:15;101502.64;;;21.40;45.38
55687;BME280;41911;52.362;4.978;2022-08-03T00:01:46;101502.88;;;21.44;45.29
55687;BME280;41911;52.362;4.978;2022-08-03T00:02:18;101503.96;;;21.45;45.24
55687;BME280;41911;52.362;4.978;2022-08-03T00:02:49;101502.80;;;21.40;45.28
55687;BME280;41911;52.362;4.978;2022-08-03T00:03:20;101501.67;;;21.26;45.13
55687;BME280;41911;52.362;4.978;2022-08-03T00:03:51;101501.12;;;21.53;45.15
55687;BME280;41911;52.362;4.978;2022-08-03T00:04:22;101500.53;;;21.58;45.04
55687;BME280;41911;52.362;4.978;2022-08-03T00:04:53;101501.24;;;21.45;45.08
55687;BME280;41911;52.362;4.978;2022-08-03T00:05:24;101503.33;;;21.64;45.03
55687;BME280;41911;52.362;4.978;2022-08-03T00:05:55;101505.18;;;21.58;44.91
55687;BME280;41911;52.362;4.978;2022-08-03T00:06:26;101501.47;;;21.77;44.64
55687;BME280;41911;52.362;4.978;2022-08-03T00:06:57;101504.80;;;21.87;44.54
55687;BME280;41911;52.362;4.978;2022-08-03T00:07:28;101503.41;;;21.64;44.92
55687;BME280;41911;52.362;4.978;2022-08-03T00:07:59;101502.57;;;21.75;44.79
55687;BME280;41911;52.362;4.978;2022-08-03T00:08:30;101501.82;;;21.27;44.88
55687;BME280;41911;52.362;4.978;2022-08-03T00:09:01;101503.68;;;21.30;44.82
55687;BME280;41911;52.362;4.978;2022-08-03T00:09:32;101502.28;;;21.32;44.76
55687;BME280;41911;52.362;4.978;2022-08-03T00:10:04;101500.50;;;21.45;45.00
55687;BME280;41911;52.362;4.978;2022-08-03T00:10:35;101500.40;;;21.46;45.00
55687;BME280;41911;52.362;4.978;2022-08-03T00:11:06;101499.31;;;21.40;45.04
55687;BME280;41911;52.362;4.978;2022-08-03T00:11:38;101499.82;;;21.39;45.03
55687;BME280;41911;52.362;4.978;2022-08-03T00:12:09;101499.14;;;21.49;45.03
55687;BME280;41911;52.362;4.978;2022-08-03T00:12:40;101496.34;;;21.52;44.99
55687;BME280;41911;52.362;4.978;2022-08-03T00:13:11;101498.72;;;21.46;45.08
55687;BME280;41911;52.362;4.978;2022-08-03T00:13:42;101499.83;;;21.78;45.10
55687;BME280;41911;52.362;4.978;2022-08-03T00:14:13;101499.66;;;21.53;44.98
55687;BME280;41911;52.362;4.978;2022-08-03T00:14:44;101499.98;;;21.76;45.00
55687;BME280;41911;52.362;4.978;2022-08-03T00:15:15;101498.13;;;21.57;44.83
55687;BME280;41911;52.362;4.978;2022-08-03T00:15:46;101502.43;;;21.67;44.81
55687;BME280;41911;52.362;4.978;2022-08-03T00:16:18;101497.48;;;21.66;44.86
55687;BME280;41911;52.362;4.978;2022-08-03T00:16:49;101499.79;;;21.83;44.92
55687;BME280;41911;52.362;4.978;2022-08-03T00:17:20;101500.92;;;21.55;44.94
55687;BME280;41911;52.362;4.978;2022-08-03T00:17:51;101502.90;;;21.65;44.81
55687;BME280;41911;52.362;4.978;2022-08-03T00:18:22;101501.40;;;21.58;44.95
55687;BME280;41911;52.362;4.978;2022-08-03T00:18:53;101501.75;;;21.50;44.95
55687;BME280;41911;52.362;4.978;2022-08-03T00:19:24;101500.53;;;21.48;44.92
55687;BME280;41911;52.362;4.978;2022-08-03T00:19:55;101499.80;;;21.52;44.96
55687;BME280;41911;52.362;4.978;2022-08-03T00:20:26;101500.92;;;21.59;44.87
55687;BME280;41911;52.362;4.978;2022-08-03T00:20:57;101499.36;;;21.18;45.37
55687;BME280;41911;52.362;4.978;2022-08-03T00:21:28;101500.18;;;21.55;45.33
55687;BME280;41911;52.362;4.978;2022-08-03T00:21:59;101500.78;;;21.26;45.33
55687;BME280;41911;52.362;4.978;2022-08-03T00:22:36;101502.01;;;21.27;45.35
55687;BME280;41911;52.362;4.978;2022-08-03T00:23:07;101500.10;;;21.58;45.28
55687;BME280;41911;52.362;4.978;2022-08-03T00:23:38;101503.86;;;21.88;44.90
55687;BME280;41911;52.362;4.978;2022-08-03T00:24:09;101501.41;;;21.37;45.08
55687;BME280;41911;52.362;4.978;2022-08-03T00:24:40;101501.99;;;21.88;45.26
55687;BME280;41911;52.362;4.978;2022-08-03T00:25:11;101499.71;;;21.13;45.48
55687;BME280;41911;52.362;4.978;2022-08-03T00:25:42;101503.23;;;21.25;45.50
55687;BME280;41911;52.362;4.978;2022-08-03T00:26:13;101501.77;;;21.26;45.34
55687;BME280;41911;52.362;4.978;2022-08-03T00:26:44;101499.57;;;21.77;45.47
55687;BME280;41911;52.362;4.978;2022-08-03T00:27:15;101497.89;;;21.46;45.76
55687;BME280;41911;52.362;4.978;2022-08-03T00:27:46;101500.27;;;21.31;45.81
55687;BME280;41911;52.362;4.978;2022-08-03T00:28:17;101498.01;;;21.57;45.88
55687;BME280;41911;52.362;4.978;2022-08-03T00:28:48;101496.95;;;21.45;45.75
55687;BME280;41911;52.362;4.978;2022-08-03T00:29:19;101498.28;;;21.68;45.80
55687;BME280;41911;52.362;4.978;2022-08-03T00:29:50;101500.63;;;21.56;45.79
55687;BME280;41911;52.362;4.978;2022-08-03T00:30:21;101497.09;;;21.02;45.92
55687;BME280;41911;52.362;4.978;2022-08-03T00:30:52;101497.81;;;21.00;46.23
55687;BME280;41911;52.362;4.978;2022-08-03T00:31:23;101497.08;;;20.99;46.36
55687;BME280;41911;52.362;4.978;2022-08-03T00:31:54;101496.43;;;20.80;46.30
55687;BME280;41911;52.362;4.978;2022-08-03T00:32:25;101497.81;;;21.51;46.20
55687;BME280;41911;52.362;4.978;2022-08-03T00:33:02;101497.94;;;21.04;46.10
55687;BME280;41911;52.362;4.978;2022-08-03T00:33:33;101498.94;;;21.65;46.13
55687;BME280;41911;52.362;4.978;2022-08-03T00:34:04;101497.80;;;21.52;46.27
55687;BME280;41911;52.362;4.978;2022-08-03T00:34:35;101498.28;;;21.08;46.25
55687;BME280;41911;52.362;4.978;2022-08-03T00:35:07;101495.54;;;21.02;46.30
55687;BME280;41911;52.362;4.978;2022-08-03T00:35:39;101496.26;;;21.56;46.21
55687;BME280;41911;52.362;4.978;2022-08-03T00:36:10;101496.20;;;21.61;46.00
55687;BME280;41911;52.362;4.978;2022-08-03T00:36:41;101497.03;;;21.43;45.85
55687;BME280;41911;52.362;4.978;2022-08-03T00:37:12;101496.87;;;21.31;45.92
55687;BME280;41911;52.362;4.978;2022-08-03T00:37:43;101496.13;;;21.28;45.94
55687;BME280;41911;52.362;4.978;2022-08-03T00:38:14;101496.18;;;21.36;45.88
55687;BME280;41911;52.362;4.978;2022-08-03T00:38:45;101495.88;;;21.31;45.83
55687;BME280;41911;52.362;4.978;2022-08-03T00:39:16;101495.38;;;21.49;45.72
55687;BME280;41911;52.362;4.978;2022-08-03T00:39:47;101493.55;;;21.49;45.73
55687;BME280;41911;52.362;4.978;2022-08-03T00:40:20;101493.15;;;21.93;45.56
55687;BME280;41911;52.362;4.978;2022-08-03T00:40:51;101494.26;;;21.73;45.39
55687;BME280;41911;52.362;4.978;2022-08-03T00:41:22;101491.56;;;21.37;45.39
55687;BME280;41911;52.362;4.978;2022-08-03T00:41:53;101491.19;;;21.67;45.46
55687;BME280;41911;52.362;4.978;2022-08-03T00:42:24;101491.93;;;21.42;45.43
55687;BME280;41911;52.362;4.978;2022-08-03T00:42:56;101492.13;;;21.35;45.42
55687;BME280;41911;52.362;4.978;2022-08-03T00:43:28;101492.99;;;21.33;45.43
55687;BME280;41911;52.362;4.978;2022-08-03T00:43:59;101492.54;;;21.03;45.38
55687;BME280;41911;52.362;4.978;2022-08-03T00:44:30;101491.13;;;21.74;45.24
55687;BME280;41911;52.362;4.978;2022-08-03T00:45:02;101490.15;;;21.44;45.22
55687;BME280;41911;52.362;4.978;2022-08-03T00:45:36;101489.20;;;21.43;45.28
55687;BME280;41911;52.362;4.978;2022-08-03T00:46:07;101487.86;;;21.39;45.36
55687;BME280;41911;52.362;4.978;2022-08-03T00:46:38;101489.00;;;21.49;45.27
55687;BME280;41911;52.362;4.978;2022-08-03T00:47:10;101487.52;;;21.47;45.28
55687;BME280;41911;52.362;4.978;2022-08-03T00:47:41;101487.06;;;21.42;45.38
55687;BME280;41911;52.362;4.978;2022-08-03T00:48:12;101486.11;;;21.32;45.39
55687;BME280;41911;52.362;4.978;2022-08-03T00:48:43;101486.79;;;21.14;45.36
55687;BME280;41911;52.362;4.978;2022-08-03T00:49:14;101486.76;;;21.73;45.29
55687;BME280;41911;52.362;4.978;2022-08-03T00:49:45;101485.32;;;21.32;45.52
55687;BME280;41911;52.362;4.978;2022-08-03T00:50:17;101484.14;;;21.34;45.50
55687;BME280;41911;52.362;4.978;2022-08-03T00:50:50;101483.16;;;21.42;45.49
55687;BME280;41911;52.362;4.978;2022-08-03T00:51:23;101484.79;;;21.65;45.40
55687;BME280;41911;52.362;4.978;2022-08-03T00:51:55;101483.71;;;21.47;45.34
55687;BME280;41911;52.362;4.978;2022-08-03T00:52:26;101482.56;;;21.40;45.33
55687;BME280;41911;52.362;4.978;2022-08-03T00:52:58;101480.78;;;21.77;45.23
55687;BME280;41911;52.362;4.978;2022-08-03T00:53:30;101481.93;;;21.50;45.19
55687;BME280;41911;52.362;4.978;2022-08-03T00:54:03;101481.29;;;21.39;45.32
55687;BME280;41911;52.362;4.978;2022-08-03T00:54:35;101479.15;;;21.23;45.57
55687;BME280;41911;52.362;4.978;2022-08-03T00:55:07;101479.75;;;21.06;45.85
55687;BME280;41911;52.362;4.978;2022-08-03T00:55:39;101479.60;;;21.05;45.93
55687;BME280;41911;52.362;4.978;2022-08-03T00:56:12;101479.68;;;21.30;45.93
55687;BME280;41911;52.362;4.978;2022-08-03T00:56:44;101477.11;;;21.33;45.89
55687;BME280;41911;52.362;4.978;2022-08-03T00:57:15;101479.24;;;20.99;45.99
55687;BME280;41911;52.362;4.978;2022-08-03T00:57:47;101480.67;;;21.26;46.07
55687;BME280;41911;52.362;4.978;2022-08-03T00:58:18;101477.61;;;21.02;46.01
55687;BME280;41911;52.362;4.978;2022-08-03T00:58:49;101475.03;;;21.07;45.93
55687;BME280;41911;52.362;4.978;2022-08-03T00:59:21;101476.22;;;21.00;46.00
55687;BME280;41911;52.362;4.978;2022-08-03T00:59:53;101476.13;;;21.08;45.92
55687;BME280;41911;52.362;4.978;2022-08-03T01:00:26;101477.46;;;21.19;45.91
55687;BME280;41911;52.362;4.978;2022-08-03T01:00:58;101475.16;;;21.16;45.78
55687;BME280;41911;52.362;4.978;2022-08-03T01:01:29;101475.77;;;21.31;45.70
55687;BME280;41911;52.362;4.978;2022-08-03T01:02:00;101472.98;;;21.19;45.76
55687;BME280;41911;52.362;4.978;2022-08-03T01:02:33;101472.20;;;21.33;45.75
55687;BME280;41911;52.362;4.978;2022-08-03T01:03:07;101471.11;;;21.34;45.62
55687;BME280;41911;52.362;4.978;2022-08-03T01:03:38;101471.67;;;21.85;45.72
55687;BME280;41911;52.362;4.978;2022-08-03T01:04:09;101470.03;;;21.31;45.66
55687;BME280;41911;52.362;4.978;2022-08-03T01:04:40;101469.46;;;21.66;45.61
55687;BME280;41911;52.362;4.978;2022-08-03T01:05:12;101469.84;;;21.33;45.57
55687;BME280;41911;52.362;4.978;2022-08-03T01:05:48;101466.44;;;21.34;45.54
55687;BME280;41911;52.362;4.978;2022-08-03T01:06:27;101466.54;;;21.39;45.51
55687;BME280;41911;52.362;4.978;2022-08-03T01:07:06;101465.45;;;21.33;45.74
55687;BME280;41911;52.362;4.978;2022-08-03T01:07:57;101462.75;;;21.30;45.69
55687;BME280;41911;52.362;4.978;2022-08-03T01:08:37;101462.92;;;21.28;45.78
55687;BME280;41911;52.362;4.978;2022-08-03T01:09:17;101461.85;;;21.23;45.75
55687;BME280;41911;52.362;4.978;2022-08-03T01:09:59;101461.99;;;21.87;45.65
55687;BME280;41911;52.362;4.978;2022-08-03T01:10:38;101461.12;;;21.37;45.73
55687;BME280;41911;52.362;4.978;2022-08-03T01:11:21;101462.08;;;21.68;45.58
55687;BME280;41911;52.362;4.978;2022-08-03T01:11:59;101463.05;;;21.25;45.71
55687;BME280;41911;52.362;4.978;2022-08-03T01:12:38;101462.27;;;21.54;45.68
55687;BME280;41911;52.362;4.978;2022-08-03T01:13:20;101463.13;;;21.42;45.48
55687;BME280;41911;52.362;4.978;2022-08-03T01:14:01;101461.86;;;21.20;45.38
55687;BME280;41911;52.362;4.978;2022-08-03T01:14:37;101463.93;;;21.36;45.55
55687;BME280;41911;52.362;4.978;2022-08-03T01:15:18;101464.72;;;21.37;45.56
55687;BME280;41911;52.362;4.978;2022-08-03T01:15:57;101465.72;;;21.17;45.82
55687;BME280;41911;52.362;4.978;2022-08-03T01:16:35;101464.14;;;21.32;45.68
55687;BME280;41911;52.362;4.978;2022-08-03T01:17:12;101465.08;;;21.20;45.78
55687;BME280;41911;52.362;4.978;2022-08-03T01:17:48;101463.48;;;21.24;45.69
55687;BME280;41911;52.362;4.978;2022-08-03T01:18:26;101465.15;;;21.56;45.62
55687;BME280;41911;52.362;4.978;2022-08-03T01:19:11;101464.95;;;21.56;45.67
55687;BME280;41911;52.362;4.978;2022-08-03T01:19:52;101463.84;;;21.40;45.47
55687;BME280;41911;52.362;4.978;2022-08-03T01:20:30;101463.61;;;21.23;45.60
55687;BME280;41911;52.362;4.978;2022-08-03T01:21:09;101462.21;;;21.29;45.66
55687;BME280;41911;52.362;4.978;2022-08-03T01:21:53;101461.05;;;21.48;45.42
55687;BME280;41911;52.362;4.978;2022-08-03T01:23:48;101459.62;;;21.46;45.35
55687;BME280;41911;52.362;4.978;2022-08-03T01:24:33;101459.17;;;21.71;45.40
55687;BME280;41911;52.362;4.978;2022-08-03T01:25:15;101456.41;;;21.61;45.18
55687;BME280;41911;52.362;4.978;2022-08-03T01:26:10;101456.74;;;21.29;45.24
55687;BME280;41911;52.362;4.978;2022-08-03T01:26:57;101452.77;;;21.54;45.20
55687;BME280;41911;52.362;4.978;2022-08-03T01:27:44;101455.03;;;21.51;45.33
55687;BME280;41911;52.362;4.978;2022-08-03T01:28:36;101453.49;;;21.53;45.32
55687;BME280;41911;52.362;4.978;2022-08-03T01:30:26;101452.81;;;21.56;45.24
55687;BME280;41911;52.362;4.978;2022-08-03T01:31:04;101447.57;;;21.44;45.37
55687;BME280;41911;52.362;4.978;2022-08-03T01:31:42;101448.87;;;21.43;45.36
55687;BME280;41911;52.362;4.978;2022-08-03T01:32:17;101448.21;;;21.35;45.47
55687;BME280;41911;52.362;4.978;2022-08-03T01:32:55;101447.21;;;21.17;45.79
55687;BME280;41911;52.362;4.978;2022-08-03T01:33:37;101447.15;;;21.27;45.62
55687;BME280;41911;52.362;4.978;2022-08-03T01:34:11;101447.61;;;21.19;45.74
55687;BME280;41911;52.362;4.978;2022-08-03T01:34:51;101448.61;;;21.27;45.66
55687;BME280;41911;52.362;4.978;2022-08-03T01:35:28;101451.66;;;21.25;45.61
55687;BME280;41911;52.362;4.978;2022-08-03T01:36:04;101449.54;;;21.21;45.63
55687;BME280;41911;52.362;4.978;2022-08-03T01:36:39;101450.19;;;21.33;45.50
55687;BME280;41911;52.362;4.978;2022-08-03T01:37:18;101448.83;;;21.53;45.68
55687;BME280;41911;52.362;4.978;2022-08-03T01:37:55;101453.06;;;21.31;45.59
55687;BME280;41911;52.362;4.978;2022-08-03T01:38:29;101451.87;;;21.38;45.49
55687;BME280;41911;52.362;4.978;2022-08-03T01:39:04;101453.12;;;21.49;45.41
55687;BME280;41911;52.362;4.978;2022-08-03T01:39:36;101454.11;;;21.48;45.35
55687;BME280;41911;52.362;4.978;2022-08-03T01:40:11;101456.02;;;21.46;45.38
55687;BME280;41911;52.362;4.978;2022-08-03T01:40:43;101455.69;;;21.33;45.43
55687;BME280;41911;52.362;4.978;2022-08-03T01:41:19;101455.78;;;21.33;45.47
55687;BME280;41911;52.362;4.978;2022-08-03T01:41:55;101454.30;;;21.51;45.72
55687;BME280;41911;52.362;4.978;2022-08-03T01:42:28;101453.93;;;20.97;46.01
55687;BME280;41911;52.362;4.978;2022-08-03T01:43:02;101455.39;;;21.08;45.96
55687;BME280;41911;52.362;4.978;2022-08-03T01:43:34;101455.28;;;21.16;45.78
55687;BME280;41911;52.362;4.978;2022-08-03T01:44:09;101453.87;;;21.29;45.71
55687;BME280;41911;52.362;4.978;2022-08-03T01:44:44;101455.05;;;21.35;45.68
55687;BME280;41911;52.362;4.978;2022-08-03T01:45:17;101451.42;;;21.78;45.63
55687;BME280;41911;52.362;4.978;2022-08-03T01:45:50;101451.78;;;21.18;45.77
55687;BME280;41911;52.362;4.978;2022-08-03T01:46:22;101449.51;;;21.26;45.83
55687;BME280;41911;52.362;4.978;2022-08-03T01:46:56;101451.42;;;21.21;45.75
55687;BME280;41911;52.362;4.978;2022-08-03T01:47:28;101451.09;;;20.92;46.14
55687;BME280;41911;52.362;4.978;2022-08-03T01:48:00;101450.34;;;20.77;46.31
55687;BME280;41911;52.362;4.978;2022-08-03T01:48:33;101449.93;;;20.87;46.29
55687;BME280;41911;52.362;4.978;2022-08-03T01:49:08;101450.12;;;21.54;46.10
55687;BME280;41911;52.362;4.978;2022-08-03T01:49:42;101447.77;;;21.00;46.13
55687;BME280;41911;52.362;4.978;2022-08-03T01:50:18;101447.34;;;21.05;46.08
55687;BME280;41911;52.362;4.978;2022-08-03T01:50:51;101449.02;;;21.23;46.31
55687;BME280;41911;52.362;4.978;2022-08-03T01:51:24;101447.50;;;20.95;46.25
55687;BME280;41911;52.362;4.978;2022-08-03T01:51:55;101447.15;;;20.91;46.24
55687;BME280;41911;52.362;4.978;2022-08-03T01:52:28;101447.53;;;21.09;46.11
55687;BME280;41911;52.362;4.978;2022-08-03T01:53:01;101446.74;;;21.05;46.06
55687;BME280;41911;52.362;4.978;2022-08-03T01:53:33;101446.73;;;21.32;46.10
55687;BME280;41911;52.362;4.978;2022-08-03T01:54:06;101449.00;;;21.62;46.08
55687;BME280;41911;52.362;4.978;2022-08-03T01:54:42;101450.99;;;21.24;46.30
55687;BME280;41911;52.362;4.978;2022-08-03T01:55:18;101448.35;;;21.12;46.25
55687;BME280;41911;52.362;4.978;2022-08-03T01:55:53;101447.76;;;21.39;46.21
55687;BME280;41911;52.362;4.978;2022-08-03T01:56:26;101448.58;;;21.25;45.95
55687;BME280;41911;52.362;4.978;2022-08-03T01:56:59;101450.72;;;21.07;45.97
55687;BME280;41911;52.362;4.978;2022-08-03T01:57:33;101450.04;;;21.39;45.92
55687;BME280;41911;52.362;4.978;2022-08-03T01:58:06;101451.41;;;21.12;45.81
55687;BME280;41911;52.362;4.978;2022-08-03T01:58:39;101451.35;;;21.16;45.86
55687;BME280;41911;52.362;4.978;2022-08-03T01:59:11;101451.36;;;21.17;45.84
55687;BME280;41911;52.362;4.978;2022-08-03T01:59:46;101450.64;;;21.10;45.92
55687;BME280;41911;52.362;4.978;2022-08-03T02:00:19;101448.88;;;21.03;46.00
55687;BME280;41911;52.362;4.978;2022-08-03T02:00:50;101448.93;;;21.07;45.96
55687;BME280;41911;52.362;4.978;2022-08-03T02:01:24;101445.13;;;21.11;45.97
55687;BME280;41911;52.362;4.978;2022-08-03T02:01:57;101447.11;;;21.42;46.21
55687;BME280;41911;52.362;4.978;2022-08-03T02:02:30;101446.54;;;21.22;46.37
55687;BME280;41911;52.362;4.978;2022-08-03T02:03:04;101447.80;;;20.93;46.30
55687;BME280;41911;52.362;4.978;2022-08-03T02:03:38;101446.65;;;20.88;46.32
55687;BME280;41911;52.362;4.978;2022-08-03T02:04:12;101444.44;;;20.99;46.04
55687;BME280;41911;52.362;4.978;2022-08-03T02:04:45;101445.21;;;21.41;46.01
55687;BME280;41911;52.362;4.978;2022-08-03T02:05:18;101446.00;;;20.97;46.06
55687;BME280;41911;52.362;4.978;2022-08-03T02:05:52;101446.94;;;21.26;46.08
55687;BME280;41911;52.362;4.978;2022-08-03T02:06:24;101446.58;;;21.21;46.21
55687;BME280;41911;52.362;4.978;2022-08-03T02:06:57;101444.41;;;20.90;46.25
55687;BME280;41911;52.362;4.978;2022-08-03T02:07:32;101443.65;;;21.11;46.25
55687;BME280;41911;52.362;4.978;2022-08-03T02:08:05;101447.37;;;21.16;46.27
55687;BME280;41911;52.362;4.978;2022-08-03T02:08:38;101447.78;;;21.20;46.26
55687;BME280;41911;52.362;4.978;2022-08-03T02:09:11;101444.04;;;21.40;46.33
55687;BME280;41911;52.362;4.978;2022-08-03T02:09:44;101446.53;;;20.93;46.43
55687;BME280;41911;52.362;4.978;2022-08-03T02:10:19;101444.24;;;20.77;46.35
55687;BME280;41911;52.362;4.978;2022-08-03T02:10:51;101444.45;;;20.86;46.41
55687;BME280;41911;52.362;4.978;2022-08-03T02:11:25;101446.18;;;21.14;46.40
55687;BME280;41911;52.362;4.978;2022-08-03T02:11:56;101447.16;;;21.50;46.30
55687;BME280;41911;52.362;4.978;2022-08-03T02:12:30;101444.66;;;21.41;46.13
55687;BME280;41911;52.362;4.978;2022-08-03T02:13:04;101445.68;;;21.54;45.94
55687;BME280;41911;52.362;4.978;2022-08-03T02:13:37;101445.09;;;21.21;45.93
55687;BME280;41911;52.362;4.978;2022-08-03T02:14:08;101446.98;;;21.46;45.86
55687;BME280;41911;52.362;4.978;2022-08-03T02:14:42;101445.82;;;21.02;46.14
55687;BME280;41911;52.362;4.978;2022-08-03T02:15:15;101445.60;;;21.37;46.05
55687;BME280;41911;52.362;4.978;2022-08-03T02:15:47;101443.81;;;21.41;46.00
55687;BME280;41911;52.362;4.978;2022-08-03T02:16:22;101441.73;;;21.19;45.94
55687;BME280;41911;52.362;4.978;2022-08-03T02:16:56;101440.17;;;21.19;45.98
55687;BME280;41911;52.362;4.978;2022-08-03T02:17:28;101442.89;;;21.17;45.98
55687;BME280;41911;52.362;4.978;2022-08-03T02:18:00;101439.26;;;21.46;45.93
55687;BME280;41911;52.362;4.978;2022-08-03T02:18:32;101439.65;;;21.24;45.85
55687;BME280;41911;52.362;4.978;2022-08-03T02:19:05;101440.06;;;21.10;45.93
55687;BME280;41911;52.362;4.978;2022-08-03T02:19:37;101438.57;;;21.51;45.90
55687;BME280;41911;52.362;4.978;2022-08-03T02:20:11;101439.77;;;21.39;46.07
55687;BME280;41911;52.362;4.978;2022-08-03T02:20:43;101437.35;;;21.10;46.01
55687;BME280;41911;52.362;4.978;2022-08-03T02:21:14;101438.80;;;21.08;46.03
55687;BME280;41911;52.362;4.978;2022-08-03T02:21:46;101438.42;;;20.67;46.05
55687;BME280;41911;52.362;4.978;2022-08-03T02:22:18;101437.22;;;21.00;46.07
55687;BME280;41911;52.362;4.978;2022-08-03T02:22:51;101436.56;;;20.90;46.28
55687;BME280;41911;52.362;4.978;2022-08-03T02:23:22;101435.99;;;21.03;46.27
55687;BME280;41911;52.362;4.978;2022-08-03T02:23:54;101433.55;;;21.30;46.13
55687;BME280;41911;52.362;4.978;2022-08-03T02:24:25;101433.48;;;21.63;46.24
55687;BME280;41911;52.362;4.978;2022-08-03T02:24:56;101434.02;;;21.19;46.33
55687;BME280;41911;52.362;4.978;2022-08-03T02:25:27;101434.27;;;21.29;46.21
55687;BME280;41911;52.362;4.978;2022-08-03T02:26:02;101432.74;;;20.97;46.24
55687;BME280;41911;52.362;4.978;2022-08-03T02:26:36;101433.17;;;21.49;46.15
55687;BME280;41911;52.362;4.978;2022-08-03T02:27:13;101428.73;;;21.02;46.15
55687;BME280;41911;52.362;4.978;2022-08-03T02:27:51;101429.52;;;21.37;46.24
55687;BME280;41911;52.362;4.978;2022-08-03T02:28:29;101425.58;;;21.47;46.27
55687;BME280;41911;52.362;4.978;2022-08-03T02:29:04;101428.17;;;20.96;46.34
55687;BME280;41911;52.362;4.978;2022-08-03T02:29:38;101427.32;;;20.95;46.29
55687;BME280;41911;52.362;4.978;2022-08-03T02:30:12;101426.54;;;20.95;46.42
55687;BME280;41911;52.362;4.978;2022-08-03T02:30:45;101425.83;;;21.23;46.35
55687;BME280;41911;52.362;4.978;2022-08-03T02:31:23;101429.23;;;21.01;46.27
55687;BME280;41911;52.362;4.978;2022-08-03T02:31:57;101426.20;;;21.30;46.24
55687;BME280;41911;52.362;4.978;2022-08-03T02:32:35;101426.05;;;20.98;46.31
55687;BME280;41911;52.362;4.978;2022-08-03T02:33:17;101423.35;;;20.98;46.29
55687;BME280;41911;52.362;4.978;2022-08-03T02:33:52;101425.42;;;21.14;46.13
55687;BME280;41911;52.362;4.978;2022-08-03T02:34:26;101424.04;;;20.95;46.28
55687;BME280;41911;52.362;4.978;2022-08-03T02:35:00;101425.83;;;20.95;46.44
55687;BME280;41911;52.362;4.978;2022-08-03T02:35:33;101423.15;;;21.17;46.53
55687;BME280;41911;52.362;4.978;2022-08-03T02:36:06;101424.39;;;21.07;46.63
55687;BME280;41911;52.362;4.978;2022-08-03T02:36:40;101421.98;;;20.65;46.90
55687;BME280;41911;52.362;4.978;2022-08-03T02:37:12;101420.88;;;21.04;46.74
55687;BME280;41911;52.362;4.978;2022-08-03T02:37:50;101422.61;;;20.84;46.58
55687;BME280;41911;52.362;4.978;2022-08-03T02:38:27;101421.50;;;21.18;46.53
55687;BME280;41911;52.362;4.978;2022-08-03T02:39:01;101417.26;;;21.20;46.50
55687;BME280;41911;52.362;4.978;2022-08-03T02:39:36;101420.89;;;21.11;46.58
55687;BME280;41911;52.362;4.978;2022-08-03T02:40:11;101419.76;;;20.85;46.52
55687;BME280;41911;52.362;4.978;2022-08-03T02:40:44;101420.51;;;20.77;46.69
55687;BME280;41911;52.362;4.978;2022-08-03T02:41:19;101419.80;;;20.74;46.73
55687;BME280;41911;52.362;4.978;2022-08-03T02:41:57;101420.62;;;20.86;46.63
55687;BME280;41911;52.362;4.978;2022-08-03T02:42:32;101421.14;;;21.23;46.56
55687;BME280;41911;52.362;4.978;2022-08-03T02:43:07;101421.26;;;20.94;46.52
55687;BME280;41911;52.362;4.978;2022-08-03T02:43:39;101421.38;;;21.26;46.51
55687;BME280;41911;52.362;4.978;2022-08-03T02:44:12;101422.70;;;21.30;46.60
55687;BME280;41911;52.362;4.978;2022-08-03T02:44:49;101419.78;;;20.88;46.65
55687;BME280;41911;52.362;4.978;2022-08-03T02:45:23;101418.87;;;21.22;46.58
55687;BME280;41911;52.362;4.978;2022-08-03T02:45:57;101423.30;;;21.00;46.48
55687;BME280;41911;52.362;4.978;2022-08-03T02:46:33;101421.65;;;21.37;46.42
55687;BME280;41911;52.362;4.978;2022-08-03T02:47:08;101422.55;;;21.40;46.31
55687;BME280;41911;52.362;4.978;2022-08-03T02:47:42;101423.38;;;21.14;46.20
55687;BME280;41911;52.362;4.978;2022-08-03T02:48:17;101423.74;;;21.10;46.31
55687;BME280;41911;52.362;4.978;2022-08-03T02:48:51;101422.91;;;21.09;46.29
55687;BME280;41911;52.362;4.978;2022-08-03T02:49:24;101423.97;;;21.24;46.25
55687;BME280;41911;52.362;4.978;2022-08-03T02:49:57;101423.97;;;21.28;46.06
55687;BME280;41911;52.362;4.978;2022-08-03T02:50:31;101423.69;;;21.30;45.98
55687;BME280;41911;52.362;4.978;2022-08-03T02:51:03;101424.93;;;21.60;45.89
55687;BME280;41911;52.362;4.978;2022-08-03T02:51:36;101423.73;;;21.29;46.00
55687;BME280;41911;52.362;4.978;2022-08-03T02:52:11;101423.93;;;21.30;46.02
55687;BME280;41911;52.362;4.978;2022-08-03T02:52:44;101424.42;;;21.36;45.91
55687;BME280;41911;52.362;4.978;2022-08-03T02:53:17;101426.40;;;21.62;45.92
55687;BME280;41911;52.362;4.978;2022-08-03T02:53:49;101425.20;;;21.35;45.95
55687;BME280;41911;52.362;4.978;2022-08-03T02:54:23;101424.00;;;21.23;46.04
55687;BME280;41911;52.362;4.978;2022-08-03T02:54:58;101424.91;;;21.47;46.21
55687;BME280;41911;52.362;4.978;2022-08-03T02:55:30;101426.28;;;21.21;46.17
55687;BME280;41911;52.362;4.978;2022-08-03T02:56:04;101424.73;;;21.21;46.14
55687;BME280;41911;52.362;4.978;2022-08-03T02:56:37;101424.73;;;21.11;46.24
55687;BME280;41911;52.362;4.978;2022-08-03T02:57:10;101422.30;;;21.19;46.25
55687;BME280;41911;52.362;4.978;2022-08-03T02:57:44;101424.80;;;20.94;46.24
55687;BME280;41911;52.362;4.978;2022-08-03T02:58:18;101422.35;;;21.24;46.14
55687;BME280;41911;52.362;4.978;2022-08-03T02:58:49;101423.39;;;21.24;46.17